KTVF/TVF METAR and TAF weather

Enter ICAO airport designator
Station Type Date Time Source
KTVF METAR 2020/01/17 21:56 UTC NOAA

KTVF 172156Z AUTO 15018G24KT 9SM FEW018 OVC026 M04/M07 A3004 RMK AO2 PK WND 16029/2128 SNB15E40 SLP197 P0000 T10391067 FZRANO


Station Type Date Time Source
KTVF Decoded METAR 2020/01/17 21:56 UTC NOAA

Thief River Falls, Thief River Falls Regional Airport, MN, United States (KTVF) 48-04N 096-11W
Jan 17, 2020 - 04:56 PM EST / 2020.01.17 2156 UTC
Wind: from the SSE (150 degrees) at 21 MPH (18 KT) gusting to 28 MPH (24 KT):0
Visibility: 9 mile(s):0
Sky conditions: overcast
Precipitation last hour: A trace
Temperature: 25.0 F (-3.9 C)
Windchill: 10 F (-12 C):1
Dew Point: 19.9 F (-6.7 C)
Relative Humidity: 80%
Pressure (altimeter): 30.04 in. Hg (1017 hPa)
ob: KTVF 172156Z AUTO 15018G24KT 9SM FEW018 OVC026 M04/M07 A3004 RMK AO2 PK WND 16029/2128 SNB15E40 SLP197 P0000 T10391067 FZRANO
cycle: 22

Station Type Date Time Source
KTVF TAF 2020/01/17 23:34 UTC NOAA

TAF
AMD KTVF 172231Z 1723/1818 16017G26KT 6SM -SN OVC026 WS020/17045KT
FM180000 14018KT 2SM -SN BLSN OVC020
FM180400 14013KT 1SM -SN OVC017
FM181100 31017KT 1 1/2SM -SN BLSN OVC011

Example: see airport list